Terminal Aerodrome Forecast
Issued by NWS Jackson, MS

Home | Current Version | Previous Version | Text Only | Print | Product List | Glossary On
Versions: 1 2 3 4 5 6 7 8 9 10 11 12 13
099
FTUS44 KJAN 230529
TAFHBG
TAF
KHBG 230529Z 2306/2406 00000KT P6SM FEW250
     FM231100 00000KT 5SM BR SCT250
     FM231400 VRB03KT P6SM FEW050 SCT250
     FM231800 31003KT P6SM VCTS BKN050CB=

USA.gov is the U.S. government's official web portal to all federal, state and local government web resources and services.